Time;durP1;ratioP1;P1;durP2;ratioP2;P2;SDS_P1;SDS_P2;PMS_P1;PMS_P2;Temp;Humidity;BMP_temperature;BMP_pressure;BME280_temperature;BME280_humidity;BME280_pressure;Samples;Min_cycle;Max_cycle;Signal;HPM_P1;HPM_P2
2023/01/06 00:00:18;;;;;;;15.05;4.20;;;;;;;7.33;92.01;99137.19;5022850;28;20025;-81
2023/01/06 00:02:46;;;;;;;12.93;4.18;;;;;;;7.33;91.94;99126.56;5023279;28;20160;-79
2023/01/06 00:05:13;;;;;;;16.10;4.10;;;;;;;7.38;91.37;99132.00;5025883;28;20515;-79
2023/01/06 00:07:39;;;;;;;10.23;3.83;;;;;;;7.37;91.94;99124.25;5022284;28;20401;-79
2023/01/06 00:10:06;;;;;;;11.55;4.85;;;;;;;7.15;93.07;99115.91;5024330;28;20033;-79
2023/01/06 00:12:32;;;;;;;8.20;3.70;;;;;;;7.40;92.08;99123.84;5005342;28;20038;-80
2023/01/06 00:14:57;;;;;;;12.30;4.30;;;;;;;7.29;92.01;99113.94;5013267;28;20065;-80
2023/01/06 00:17:23;;;;;;;11.93;4.63;;;;;;;7.40;91.82;99110.56;5021961;28;20028;-79
2023/01/06 00:19:49;;;;;;;10.85;3.80;;;;;;;7.29;92.46;99112.09;5023257;28;20041;-79
2023/01/06 00:22:14;;;;;;;11.88;5.13;;;;;;;7.28;92.90;99112.31;5020482;28;20041;-80
2023/01/06 00:24:39;;;;;;;10.20;4.10;;;;;;;7.33;92.37;99110.63;5015555;28;20029;-79
2023/01/06 00:27:05;;;;;;;13.45;4.25;;;;;;;7.44;92.12;99117.88;5025573;28;20041;-80
2023/01/06 00:29:30;;;;;;;12.02;4.43;;;;;;;7.38;92.52;99108.09;5003260;28;20034;-80
2023/01/06 00:31:59;;;;;;;11.18;5.40;;;;;;;7.37;92.57;99111.00;5026146;28;20046;-80
2023/01/06 00:34:24;;;;;;;11.73;4.45;;;;;;;7.44;91.97;99101.94;5019923;28;20031;-80
2023/01/06 00:36:50;;;;;;;8.25;3.83;;;;;;;7.43;91.90;99102.94;5008894;28;20461;-80
2023/01/06 00:39:15;;;;;;;12.13;4.28;;;;;;;7.46;92.27;99102.50;5029082;28;20036;-79
2023/01/06 00:44:24;;;;;;;7.93;3.75;;;;;;;7.42;92.58;99109.31;5024943;28;20625;-79
2023/01/06 00:46:50;;;;;;;6.85;3.65;;;;;;;7.43;92.68;99097.63;5005683;28;20432;-79
2023/01/06 00:49:16;;;;;;;11.65;3.90;;;;;;;7.56;91.96;99117.91;5007433;28;20144;-79
2023/01/06 00:51:42;;;;;;;8.68;3.83;;;;;;;7.58;92.23;99111.34;5025020;28;20037;-79
2023/01/06 00:54:09;;;;;;;7.32;4.50;;;;;;;7.50;92.60;99109.00;5029001;28;20052;-79
2023/01/06 00:56:40;;;;;;;9.80;3.92;;;;;;;7.57;92.29;99114.22;5026838;28;20033;-79
2023/01/06 00:59:06;;;;;;;12.65;4.00;;;;;;;7.59;91.48;99109.50;5024162;28;20601;-79
2023/01/06 01:01:33;;;;;;;9.10;4.10;;;;;;;7.51;92.13;99107.94;5026432;28;20037;-79
2023/01/06 01:03:58;;;;;;;12.82;4.28;;;;;;;7.66;91.93;99096.97;5026910;28;20452;-79
2023/01/06 01:06:24;;;;;;;14.18;5.05;;;;;;;7.48;92.69;99107.59;5010365;28;20123;-80
2023/01/06 01:08:54;;;;;;;9.93;4.25;;;;;;;7.49;92.93;99098.63;5028809;28;20022;-80
2023/01/06 01:14:23;;;;;;;11.00;5.45;;;;;;;7.61;92.97;99088.84;4980725;28;20746;-79
2023/01/06 01:16:49;;;;;;;7.32;4.65;;;;;;;7.62;92.41;99097.63;4975172;28;20038;-80
2023/01/06 01:19:14;;;;;;;6.22;3.63;;;;;;;7.46;92.81;99089.25;4999220;28;20052;-79
2023/01/06 01:21:40;;;;;;;13.80;4.75;;;;;;;7.52;92.88;99100.81;5025679;28;20102;-79
2023/01/06 01:24:06;;;;;;;11.93;3.90;;;;;;;7.61;93.03;99098.66;5003855;28;20033;-79
2023/01/06 01:26:31;;;;;;;11.73;4.03;;;;;;;7.48;93.25;99091.66;5023981;28;20113;-79
2023/01/06 01:28:57;;;;;;;12.88;4.53;;;;;;;7.52;93.68;99101.63;5007885;28;20033;-80
2023/01/06 01:31:22;;;;;;;13.02;4.68;;;;;;;7.71;92.64;99093.66;5024640;28;20087;-80
2023/01/06 01:33:48;;;;;;;11.38;3.88;;;;;;;7.51;93.16;99091.22;5024388;28;20136;-80
2023/01/06 01:36:16;;;;;;;6.68;3.42;;;;;;;7.53;92.73;99094.47;5025016;28;20022;-80
2023/01/06 01:38:41;;;;;;;8.13;3.85;;;;;;;7.50;92.45;99092.25;5021273;28;20297;-80
2023/01/06 01:41:08;;;;;;;6.70;3.33;;;;;;;7.53;92.69;99081.97;5023745;28;20556;-79
2023/01/06 01:44:24;;;;;;;11.85;4.35;;;;;;;7.54;92.99;99088.94;5025298;28;20022;-79
2023/01/06 01:46:49;;;;;;;5.75;3.13;;;;;;;7.61;92.61;99096.81;4994051;28;20124;-80
2023/01/06 01:49:20;;;;;;;4.93;3.17;;;;;;;7.56;92.96;99086.84;5028694;28;20116;-80
2023/01/06 01:51:49;;;;;;;9.05;3.63;;;;;;;7.38;95.00;99078.09;5024813;28;20499;-79
2023/01/06 01:54:20;;;;;;;8.52;3.53;;;;;;;7.56;92.77;99076.22;5021985;28;20033;-79
2023/01/06 01:56:49;;;;;;;7.72;3.63;;;;;;;7.68;92.45;99076.31;5023208;28;20037;-79
2023/01/06 01:59:17;;;;;;;8.48;3.50;;;;;;;7.54;93.03;99077.50;5019967;28;20397;-80
2023/01/06 02:01:44;;;;;;;6.30;3.13;;;;;;;7.60;93.79;99089.88;5023552;28;20150;-79
2023/01/06 02:04:10;;;;;;;9.13;3.83;;;;;;;7.56;93.60;99075.41;5014638;28;20103;-80
2023/01/06 02:06:35;;;;;;;7.68;3.70;;;;;;;7.61;92.83;99080.88;5023456;28;20708;-80
2023/01/06 02:09:08;;;;;;;11.80;3.00;;;;;;;7.62;93.36;99079.03;5043811;28;20037;-80
2023/01/06 02:11:36;;;;;;;8.95;3.38;;;;;;;7.55;94.47;99071.97;5022116;28;20034;-80
2023/01/06 02:14:14;;;;;;;7.28;3.13;;;;;;;7.64;92.85;99066.34;5024468;28;20440;-79
2023/01/06 02:16:59;;;;;;;9.90;3.70;;;;;;;7.56;94.25;99065.59;5030802;28;20029;-79
2023/01/06 02:19:39;;;;;;;7.07;3.53;;;;;;;7.62;93.49;99076.38;5023098;28;20029;-81
2023/01/06 02:22:26;;;;;;;6.65;2.92;;;;;;;7.66;93.11;99074.91;5029559;28;21087;-80
2023/01/06 02:25:21;;;;;;;5.80;3.58;;;;;;;7.67;93.01;99057.91;5029488;28;20024;-80
2023/01/06 02:28:11;;;;;;;7.13;2.92;;;;;;;7.68;92.80;99063.03;5027799;28;20048;-81
2023/01/06 02:30:58;;;;;;;4.53;2.72;;;;;;;7.63;93.74;99059.41;5029719;28;20503;-81
2023/01/06 02:33:28;;;;;;;7.03;4.05;;;;;;;7.61;94.02;99051.66;5027142;28;20064;-80
2023/01/06 02:36:12;;;;;;;7.38;3.97;;;;;;;7.66;94.08;99048.34;5027358;28;20036;-80
2023/01/06 02:39:12;;;;;;;8.02;3.20;;;;;;;7.51;95.45;99052.19;5029330;28;20123;-80
2023/01/06 02:41:42;;;;;;;8.75;3.75;;;;;;;7.40;96.95;99047.63;5024946;28;20033;-79
2023/01/06 02:44:26;;;;;;;9.23;5.00;;;;;;;7.61;94.91;99048.19;5027475;28;20485;-79
2023/01/06 02:47:29;;;;;;;8.18;3.33;;;;;;;7.61;95.38;99045.53;5027960;28;20028;-79
2023/01/06 02:50:09;;;;;;;5.75;4.10;;;;;;;7.74;93.12;99048.00;5026129;28;20037;-79
2023/01/06 02:52:54;;;;;;;5.70;3.10;;;;;;;7.65;93.19;99031.56;5025374;28;20041;-80
2023/01/06 02:55:26;;;;;;;6.88;3.75;;;;;;;7.64;94.30;99047.75;5029603;28;20025;-80
2023/01/06 02:58:08;;;;;;;5.20;3.58;;;;;;;7.66;93.86;99040.38;5026255;28;20465;-80
2023/01/06 03:00:42;;;;;;;4.50;3.30;;;;;;;7.66;94.15;99032.41;5028088;28;20021;-80
2023/01/06 03:03:12;;;;;;;7.93;3.30;;;;;;;7.89;92.98;99043.91;5028433;28;20481;-80
2023/01/06 03:05:40;;;;;;;6.35;3.38;;;;;;;7.84;93.94;99040.31;5026453;28;20029;-80
2023/01/06 03:08:15;;;;;;;5.95;2.97;;;;;;;7.74;93.30;99035.53;5029277;28;20034;-80
2023/01/06 03:10:43;;;;;;;6.13;3.75;;;;;;;7.57;95.11;99027.41;5029404;28;20038;-80
2023/01/06 03:13:19;;;;;;;8.07;4.97;;;;;;;7.64;94.93;99027.31;5005423;28;20473;-80
2023/01/06 03:15:45;;;;;;;9.27;3.90;;;;;;;7.64;94.91;99032.63;5024219;28;20029;-80
2023/01/06 03:18:10;;;;;;;5.45;3.15;;;;;;;7.74;93.75;99032.06;4995351;28;20033;-80
2023/01/06 03:20:36;;;;;;;5.95;3.30;;;;;;;7.75;94.34;99025.72;5023021;28;20029;-80
2023/01/06 03:23:02;;;;;;;5.07;3.20;;;;;;;7.79;94.08;99030.38;5027649;28;20437;-80
2023/01/06 03:25:27;;;;;;;5.38;2.95;;;;;;;7.79;93.79;99017.09;5028173;28;20108;-80
2023/01/06 03:27:52;;;;;;;8.75;4.18;;;;;;;7.73;93.22;99014.53;5021302;28;20037;-80
2023/01/06 03:30:18;;;;;;;3.08;2.78;;;;;;;7.78;93.55;99023.44;5023718;28;20457;-80
2023/01/06 03:33:03;;;;;;;6.13;3.47;;;;;;;7.81;93.78;99017.66;5010692;28;20026;-81
2023/01/06 03:35:46;;;;;;;4.93;3.17;;;;;;;7.84;92.86;99014.53;5027168;28;20053;-80
2023/01/06 03:38:29;;;;;;;5.80;3.30;;;;;;;7.75;93.44;99001.81;5026891;28;20025;-80
2023/01/06 03:41:02;;;;;;;6.72;3.47;;;;;;;7.86;94.17;99001.06;5027492;28;20128;-80
2023/01/06 03:43:39;;;;;;;6.88;3.55;;;;;;;7.79;94.39;99008.31;5025543;28;20029;-80
2023/01/06 03:46:42;;;;;;;9.88;3.85;;;;;;;7.82;93.86;99013.19;5027837;28;20094;-80
2023/01/06 03:49:13;;;;;;;4.90;3.20;;;;;;;7.83;93.66;99006.81;4983750;28;20049;-80
2023/01/06 03:51:56;;;;;;;5.32;2.95;;;;;;;7.87;93.56;98995.50;5009911;28;20054;-80
2023/01/06 03:54:39;;;;;;;5.22;3.60;;;;;;;7.74;95.16;98998.34;5027264;28;20030;-80
2023/01/06 03:57:10;;;;;;;5.68;2.97;;;;;;;7.85;94.29;98994.09;5027556;28;20087;-81
2023/01/06 03:59:41;;;;;;;6.72;3.28;;;;;;;7.85;93.62;98994.91;5038164;28;20041;-80
2023/01/06 04:02:07;;;;;;;2.97;2.53;;;;;;;7.87;93.50;99000.00;5022087;28;20037;-80
2023/01/06 04:04:32;;;;;;;5.95;3.63;;;;;;;7.84;94.29;98997.81;4992580;28;20029;-80
2023/01/06 04:06:58;;;;;;;3.17;2.58;;;;;;;7.80;95.04;98999.31;5024282;28;20108;-80
2023/01/06 04:09:23;;;;;;;3.40;2.45;;;;;;;7.88;94.20;98988.34;5009936;28;20033;-80
2023/01/06 04:14:33;;;;;;;8.55;4.05;;;;;;;7.87;94.29;99005.31;5027526;28;20036;-80
2023/01/06 04:16:58;;;;;;;4.43;2.80;;;;;;;7.74;94.99;98994.88;5023583;28;20033;-80
2023/01/06 04:19:24;;;;;;;4.65;3.03;;;;;;;7.77;94.99;98997.09;5008556;28;20065;-80
2023/01/06 04:21:49;;;;;;;4.45;2.72;;;;;;;7.85;95.12;98996.75;4991718;28;20037;-80
2023/01/06 04:24:14;;;;;;;4.53;2.65;;;;;;;7.83;95.46;98999.66;5008123;28;20511;-81
2023/01/06 04:26:40;;;;;;;4.50;2.72;;;;;;;7.64;95.46;98991.97;5024182;28;20029;-81
2023/01/06 04:29:05;;;;;;;6.13;3.00;;;;;;;7.78;95.49;99002.16;5006962;28;20519;-81
2023/01/06 04:31:30;;;;;;;3.30;2.53;;;;;;;7.82;95.74;98997.22;5022606;28;20716;-81
2023/01/06 04:33:56;;;;;;;5.20;3.88;;;;;;;7.79;95.25;98987.88;5026398;28;20040;-81
2023/01/06 04:36:21;;;;;;;5.80;3.10;;;;;;;7.76;95.44;98984.84;5023386;28;20116;-80
2023/01/06 04:38:46;;;;;;;7.07;3.60;;;;;;;7.79;94.88;98984.38;5021101;28;20401;-80
2023/01/06 04:41:12;;;;;;;5.30;3.05;;;;;;;7.96;94.02;98990.66;5010083;28;20033;-80
2023/01/06 04:43:37;;;;;;;6.32;3.85;;;;;;;7.95;93.76;99002.34;5010115;28;20501;-80
2023/01/06 04:46:03;;;;;;;6.70;3.95;;;;;;;7.83;93.91;98994.34;5018920;28;20030;-80
2023/01/06 04:48:29;;;;;;;6.40;5.30;;;;;;;7.85;95.64;98992.25;5008235;28;20029;-81
2023/01/06 04:51:06;;;;;;;6.60;4.35;;;;;;;7.91;94.95;98990.53;5010423;28;20120;-80
2023/01/06 04:53:37;;;;;;;11.55;5.47;;;;;;;7.90;94.11;98983.63;5022740;28;20029;-80
2023/01/06 04:56:09;;;;;;;7.65;5.10;;;;;;;7.92;94.34;98971.72;5024584;28;20525;-80
2023/01/06 04:58:36;;;;;;;11.75;6.32;;;;;;;7.77;94.52;98971.34;5026984;28;20029;-80
2023/01/06 05:01:04;;;;;;;7.68;5.38;;;;;;;7.80;95.00;98972.75;5026077;28;20044;-80
2023/01/06 05:03:30;;;;;;;7.93;5.70;;;;;;;7.92;94.24;98960.28;5006869;28;20129;-80
2023/01/06 05:05:59;;;;;;;9.75;5.82;;;;;;;7.97;94.07;98966.50;5021893;28;20180;-80
2023/01/06 05:08:25;;;;;;;7.13;6.20;;;;;;;7.89;94.08;98958.06;5026019;28;20037;-80
2023/01/06 05:10:57;;;;;;;9.07;5.75;;;;;;;7.89;93.83;98955.41;5007461;28;20034;-80
2023/01/06 05:13:22;;;;;;;8.80;6.03;;;;;;;7.90;93.71;98954.38;5021956;28;20033;-80
2023/01/06 05:15:48;;;;;;;8.20;6.22;;;;;;;7.91;94.73;98956.81;5021285;28;20033;-81
2023/01/06 05:18:13;;;;;;;9.05;5.82;;;;;;;7.71;95.67;98947.53;5023954;28;20100;-80
2023/01/06 05:20:38;;;;;;;7.50;5.65;;;;;;;7.87;94.56;98945.00;5018124;28;20030;-80
2023/01/06 05:23:04;;;;;;;7.03;5.60;;;;;;;7.87;94.01;98930.91;5022803;28;20409;-81
2023/01/06 05:25:29;;;;;;;7.88;6.15;;;;;;;7.93;93.97;98943.31;5001387;28;20520;-80
2023/01/06 05:27:54;;;;;;;8.45;6.38;;;;;;;8.00;94.14;98938.66;5023425;28;20324;-81
2023/01/06 05:30:19;;;;;;;9.65;6.45;;;;;;;7.81;93.66;98937.16;5004985;28;20041;-81
2023/01/06 05:32:45;;;;;;;10.60;5.45;;;;;;;7.86;94.53;98945.25;5023738;28;20489;-80
2023/01/06 05:35:10;;;;;;;13.20;6.18;;;;;;;7.92;93.98;98942.50;5026740;28;20377;-80
2023/01/06 05:37:35;;;;;;;9.85;6.45;;;;;;;7.79;94.20;98924.09;5026350;28;20034;-80
2023/01/06 05:40:01;;;;;;;9.63;5.38;;;;;;;7.86;94.45;98943.41;5008642;28;20048;-80
2023/01/06 05:42:26;;;;;;;9.50;5.80;;;;;;;7.81;94.01;98937.16;5010138;28;20083;-80
2023/01/06 05:44:52;;;;;;;9.02;6.38;;;;;;;7.68;95.90;98926.72;5027616;28;20358;-80
2023/01/06 05:47:17;;;;;;;11.13;5.90;;;;;;;7.86;94.94;98938.09;5010449;28;20033;-80
2023/01/06 05:49:42;;;;;;;7.20;5.53;;;;;;;7.81;94.35;98947.78;5028639;28;20030;-80
2023/01/06 05:52:07;;;;;;;10.32;6.00;;;;;;;7.85;94.26;98946.28;5029293;28;20512;-80
2023/01/06 05:54:33;;;;;;;14.00;7.00;;;;;;;7.78;94.49;98933.09;5011691;28;20116;-81
2023/01/06 05:56:58;;;;;;;11.35;6.70;;;;;;;7.72;93.65;98920.72;5008125;28;20100;-81
2023/01/06 05:59:24;;;;;;;8.43;6.13;;;;;;;7.81;93.99;98929.19;5026420;28;20038;-80
2023/01/06 06:01:49;;;;;;;10.95;6.03;;;;;;;7.79;94.54;98925.94;5027437;28;20075;-81
2023/01/06 06:04:14;;;;;;;8.57;5.60;;;;;;;7.76;94.23;98929.84;5010233;28;20490;-80
2023/01/06 06:06:40;;;;;;;8.93;5.68;;;;;;;7.77;94.31;98923.53;4994341;28;20037;-80
2023/01/06 06:09:05;;;;;;;9.63;6.20;;;;;;;7.78;94.86;98929.63;5011337;28;20029;-80
2023/01/06 06:11:31;;;;;;;10.98;6.55;;;;;;;7.76;95.21;98927.19;5001128;28;20056;-80
2023/01/06 06:13:56;;;;;;;7.28;5.53;;;;;;;7.78;94.54;98927.78;5032144;28;20036;-80
2023/01/06 06:16:25;;;;;;;9.65;6.03;;;;;;;7.78;95.08;98925.13;5026956;28;20493;-80
2023/01/06 06:18:55;;;;;;;7.25;5.20;;;;;;;7.74;95.39;98934.59;5029959;28;20036;-79
2023/01/06 06:21:24;;;;;;;10.57;6.70;;;;;;;7.72;95.26;98925.22;5027329;28;20049;-79
2023/01/06 06:23:51;;;;;;;10.07;5.05;;;;;;;7.74;95.14;98912.53;5028105;28;20033;-80
2023/01/06 06:26:16;;;;;;;8.40;5.68;;;;;;;7.71;94.90;98915.66;5023408;28;20109;-80
2023/01/06 06:28:42;;;;;;;8.65;5.18;;;;;;;7.77;94.41;98928.00;5022326;28;20037;-80
2023/01/06 06:31:12;;;;;;;8.70;5.28;;;;;;;7.82;94.71;98933.47;5002645;28;20469;-79
2023/01/06 06:33:38;;;;;;;14.43;5.85;;;;;;;7.67;95.18;98938.38;5021656;28;20405;-80
2023/01/06 06:36:05;;;;;;;11.02;5.00;;;;;;;7.84;94.64;98931.38;5008019;28;20029;-79
2023/01/06 06:38:31;;;;;;;7.45;6.13;;;;;;;7.82;94.77;98939.56;5026481;28;20112;-79
2023/01/06 06:40:56;;;;;;;8.93;6.90;;;;;;;7.76;95.16;98929.03;5023318;28;20124;-79
2023/01/06 06:43:22;;;;;;;10.98;5.88;;;;;;;7.67;95.23;98915.28;5022582;28;20381;-80
2023/01/06 06:45:47;;;;;;;9.45;6.72;;;;;;;7.74;94.73;98923.16;5029845;28;20128;-79
2023/01/06 06:48:13;;;;;;;6.15;4.68;;;;;;;7.82;94.10;98922.84;5026374;28;20030;-80
2023/01/06 06:50:38;;;;;;;8.73;6.15;;;;;;;7.89;93.79;98920.84;5012165;28;20029;-80
2023/01/06 06:53:05;;;;;;;7.10;5.40;;;;;;;7.86;94.19;98924.81;5041536;28;20116;-79
2023/01/06 06:55:31;;;;;;;9.35;5.32;;;;;;;7.90;93.57;98939.25;5022487;28;20171;-79
2023/01/06 06:57:57;;;;;;;9.02;5.25;;;;;;;7.83;94.18;98946.50;5031033;28;20041;-79
2023/01/06 07:00:22;;;;;;;8.48;4.75;;;;;;;7.65;94.98;98933.28;5024835;28;20494;-79
2023/01/06 07:02:48;;;;;;;7.28;4.97;;;;;;;7.72;95.73;98920.72;5027765;28;20033;-79
2023/01/06 07:05:15;;;;;;;8.30;6.20;;;;;;;7.72;94.39;98915.41;5026948;28;20033;-79
2023/01/06 07:07:41;;;;;;;13.30;6.88;;;;;;;7.81;94.91;98927.34;5027491;28;20052;-79
2023/01/06 07:10:07;;;;;;;14.73;6.65;;;;;;;7.73;95.11;98954.25;5024147;28;20111;-79
2023/01/06 07:12:32;;;;;;;11.00;6.55;;;;;;;7.79;95.39;98945.34;5010214;28;20030;-79
2023/01/06 07:14:57;;;;;;;15.02;6.93;;;;;;;7.73;95.31;98943.63;5046007;28;20079;-79
2023/01/06 07:17:27;;;;;;;12.10;6.38;;;;;;;7.70;95.29;98945.91;5026208;28;20401;-79
2023/01/06 07:19:52;;;;;;;11.40;5.68;;;;;;;7.72;95.35;98938.50;5037405;28;20029;-79
2023/01/06 07:22:18;;;;;;;16.35;6.75;;;;;;;7.56;95.65;98934.66;5027381;28;20094;-80
2023/01/06 07:24:43;;;;;;;13.90;6.97;;;;;;;7.61;96.46;98944.59;5028405;28;20051;-80
2023/01/06 07:27:08;;;;;;;9.85;6.45;;;;;;;7.63;95.19;98937.22;5024344;28;20041;-79
2023/01/06 07:29:34;;;;;;;8.18;5.55;;;;;;;7.67;95.71;98930.41;5006026;28;20078;-79
2023/01/06 07:31:59;;;;;;;11.43;6.38;;;;;;;7.66;96.38;98937.59;5024912;28;20120;-78
2023/01/06 07:34:25;;;;;;;12.75;5.50;;;;;;;7.91;95.49;98943.50;5022454;28;20030;-78
2023/01/06 07:36:50;;;;;;;7.05;4.60;;;;;;;7.63;96.09;98940.69;5022059;28;20508;-78
2023/01/06 07:39:15;;;;;;;12.13;4.85;;;;;;;7.67;96.09;98941.03;5004658;28;20116;-78
2023/01/06 07:41:41;;;;;;;15.38;5.10;;;;;;;7.64;96.00;98946.81;5023882;28;20499;-78
2023/01/06 07:44:06;;;;;;;8.23;4.88;;;;;;;7.64;95.47;98947.63;5009774;28;20116;-78
2023/01/06 07:46:31;;;;;;;11.02;4.90;;;;;;;7.64;95.93;98946.81;5024735;28;20435;-77
2023/01/06 07:48:57;;;;;;;10.85;4.40;;;;;;;7.63;95.95;98946.00;5008848;28;20037;-79
2023/01/06 07:51:25;;;;;;;7.85;5.53;;;;;;;7.72;94.92;98930.53;5026551;28;20040;-78
2023/01/06 07:53:51;;;;;;;6.65;4.18;;;;;;;7.58;94.81;98925.44;5008589;28;20036;-78
2023/01/06 07:56:16;;;;;;;9.13;4.20;;;;;;;7.64;95.99;98933.53;5010105;28;20033;-77
2023/01/06 07:58:41;;;;;;;4.10;3.22;;;;;;;7.54;96.10;98942.03;5017708;28;20036;-78
2023/01/06 08:01:08;;;;;;;13.07;4.18;;;;;;;7.33;96.63;98935.41;5022710;28;20041;-77
2023/01/06 08:03:33;;;;;;;3.22;2.92;;;;;;;7.47;96.09;98926.19;5026824;28;20033;-78
2023/01/06 08:05:59;;;;;;;9.48;3.22;;;;;;;7.56;95.47;98939.97;5026604;28;20526;-78
2023/01/06 08:08:24;;;;;;;5.90;3.65;;;;;;;7.67;95.01;98949.00;5026914;28;20370;-78
2023/01/06 08:10:50;;;;;;;2.72;2.38;;;;;;;7.60;95.29;98938.47;5024492;28;20036;-77
2023/01/06 08:13:15;;;;;;;4.03;2.33;;;;;;;7.51;95.89;98930.00;5012127;28;20036;-78
2023/01/06 08:15:41;;;;;;;5.40;3.33;;;;;;;7.57;95.57;98937.09;5028850;28;20392;-77
2023/01/06 08:18:07;;;;;;;7.63;2.85;;;;;;;7.65;95.20;98929.81;5027704;28;20037;-77
2023/01/06 08:20:33;;;;;;;4.78;2.65;;;;;;;7.65;95.43;98938.59;5025171;28;20112;-78
2023/01/06 08:22:59;;;;;;;3.60;2.40;;;;;;;7.68;94.51;98918.75;5026406;28;20163;-78
2023/01/06 08:25:25;;;;;;;4.03;1.98;;;;;;;7.60;95.84;98935.03;5011189;28;20033;-77
2023/01/06 08:27:50;;;;;;;5.78;2.30;;;;;;;7.68;95.19;98927.53;5006544;28;20030;-77
2023/01/06 08:30:20;;;;;;;3.95;2.45;;;;;;;7.58;95.36;98933.38;5021925;28;20030;-77
2023/01/06 08:32:46;;;;;;;1.83;1.73;;;;;;;7.58;95.24;98912.16;5023160;28;20033;-77
2023/01/06 08:35:11;;;;;;;3.20;1.80;;;;;;;7.73;94.90;98909.06;5028980;28;20078;-79
2023/01/06 08:37:37;;;;;;;9.13;2.10;;;;;;;7.79;94.25;98926.75;5013498;28;20552;-77
2023/01/06 08:40:03;;;;;;;3.05;2.20;;;;;;;7.80;94.38;98922.25;5023033;28;20540;-78
2023/01/06 08:42:28;;;;;;;2.55;1.63;;;;;;;7.75;94.58;98916.81;5024598;28;20044;-77
2023/01/06 08:44:54;;;;;;;4.57;1.90;;;;;;;7.82;93.84;98917.53;5004801;28;20129;-77
2023/01/06 08:47:19;;;;;;;2.95;1.48;;;;;;;7.77;94.43;98934.16;5024182;28;20034;-78
2023/01/06 08:49:44;;;;;;;3.25;2.38;;;;;;;7.77;94.67;98933.34;5026846;28;20030;-79
2023/01/06 08:52:10;;;;;;;2.90;1.58;;;;;;;7.71;93.92;98935.03;5025838;28;20666;-77
2023/01/06 08:54:35;;;;;;;3.40;1.30;;;;;;;7.62;94.48;98956.84;5028084;28;20037;-77
2023/01/06 08:57:01;;;;;;;3.60;1.45;;;;;;;7.76;95.24;98952.94;5007967;28;20032;-78
2023/01/06 08:59:26;;;;;;;2.72;1.60;;;;;;;7.67;95.22;98959.63;5024448;28;20549;-78
2023/01/06 09:01:51;;;;;;;1.25;1.17;;;;;;;7.48;94.65;98938.44;5009933;28;20049;-78
2023/01/06 09:04:17;;;;;;;1.50;1.40;;;;;;;7.63;95.30;98948.66;5026654;28;20116;-77
2023/01/06 09:06:43;;;;;;;5.40;1.58;;;;;;;7.67;94.69;98943.69;5027020;28;20505;-77
2023/01/06 09:09:10;;;;;;;3.13;1.80;;;;;;;7.71;94.19;98948.31;5028076;28;20544;-77
2023/01/06 09:11:36;;;;;;;1.02;1.02;;;;;;;7.63;94.57;98929.25;5024266;28;20046;-77
2023/01/06 09:14:01;;;;;;;3.42;1.30;;;;;;;7.60;94.97;98943.00;5026139;28;20045;-78
2023/01/06 09:16:27;;;;;;;2.38;1.20;;;;;;;7.60;94.60;98943.78;5027959;28;20030;-79
2023/01/06 09:18:52;;;;;;;1.55;1.17;;;;;;;7.57;94.18;98942.41;5026966;28;20029;-77
2023/01/06 09:21:19;;;;;;;1.80;1.17;;;;;;;7.71;94.39;98953.63;5045751;28;20036;-79
2023/01/06 09:23:45;;;;;;;3.40;1.45;;;;;;;7.69;94.36;98963.69;5028354;28;20443;-79
2023/01/06 09:26:11;;;;;;;1.38;0.98;;;;;;;7.74;94.05;98955.03;5028604;28;20017;-79
2023/01/06 09:28:37;;;;;;;5.47;1.98;;;;;;;7.77;94.24;98962.56;5028522;28;20029;-80
2023/01/06 09:31:03;;;;;;;1.00;1.00;;;;;;;7.79;94.26;98963.13;5028006;28;20500;-80
2023/01/06 09:33:28;;;;;;;2.47;1.48;;;;;;;7.79;94.28;98965.78;4992787;28;20374;-80
2023/01/06 09:35:53;;;;;;;2.33;1.08;;;;;;;7.71;93.74;98955.50;5027147;28;20067;-79
2023/01/06 09:38:19;;;;;;;3.03;0.85;;;;;;;7.74;94.42;98960.34;5026834;28;20128;-78
2023/01/06 09:41:08;;;;;;;235.45;46.70;;;;;;;8.09;93.16;98959.38;5026133;28;20037;-79
2023/01/06 09:43:46;;;;;;;71.25;16.35;;;;;;;8.38;90.97;98962.19;5023917;28;20112;-79
2023/01/06 09:46:15;;;;;;;37.33;9.15;;;;;;;8.41;92.37;98964.41;5022908;28;20025;-78
2023/01/06 09:48:48;;;;;;;274.27;63.08;;;;;;;8.38;91.52;98952.38;5029345;28;20041;-79
2023/01/06 09:51:19;;;;;;;145.75;32.08;;;;;;;8.31;91.29;98959.66;5031809;28;20044;-79
2023/01/06 09:54:08;;;;;;;13.68;3.08;;;;;;;8.17;92.30;98960.88;5003747;28;20067;-79
2023/01/06 09:56:33;;;;;;;73.32;15.27;;;;;;;8.65;90.70;98958.81;5025834;28;20029;-80
2023/01/06 09:59:11;;;;;;;28.67;8.23;;;;;;;8.41;90.17;98957.22;5027034;28;20045;-79
2023/01/06 10:01:46;;;;;;;16.70;2.67;;;;;;;8.29;90.43;98935.97;5008339;28;20499;-79
2023/01/06 10:04:24;;;;;;;3.45;1.67;;;;;;;8.39;90.51;98946.00;5007307;28;20037;-80
2023/01/06 10:07:27;;;;;;;7.43;2.90;;;;;;;8.36;90.30;98951.00;5026981;28;20068;-80
2023/01/06 10:10:02;;;;;;;5.68;1.83;;;;;;;8.33;91.33;98941.63;5023586;28;20045;-79
2023/01/06 10:12:46;;;;;;;1.98;1.58;;;;;;;8.32;91.43;98947.19;5024346;28;20048;-80
2023/01/06 10:15:21;;;;;;;4.68;1.95;;;;;;;8.26;91.49;98940.91;5027342;28;20034;-79
2023/01/06 10:18:04;;;;;;;3.78;2.38;;;;;;;8.27;91.05;98931.91;5027864;28;20429;-79
2023/01/06 10:20:48;;;;;;;6.70;1.58;;;;;;;8.29;92.06;98938.63;5026460;28;20079;-79
2023/01/06 10:23:26;;;;;;;1.75;1.00;;;;;;;8.45;91.15;98931.81;5042387;28;20373;-79
2023/01/06 10:26:10;;;;;;;4.68;1.30;;;;;;;8.24;90.81;98925.16;5029252;28;20025;-79
2023/01/06 10:28:41;;;;;;;1.65;1.25;;;;;;;8.24;90.99;98929.69;5030872;28;20033;-79
2023/01/06 10:31:11;;;;;;;2.60;1.02;;;;;;;8.32;91.33;98932.03;5030137;28;20037;-78
2023/01/06 10:33:41;;;;;;;3.13;1.10;;;;;;;8.27;91.11;98919.44;5028242;28;20029;-79
2023/01/06 10:36:13;;;;;;;3.38;1.05;;;;;;;8.26;91.46;98917.00;5015014;28;20044;-79
2023/01/06 10:38:44;;;;;;;3.75;1.00;;;;;;;8.32;90.79;98911.53;5030530;28;20029;-78
2023/01/06 10:41:21;;;;;;;1.63;1.23;;;;;;;8.40;90.88;98917.56;5029446;28;20182;-79
2023/01/06 10:43:46;;;;;;;1.50;1.02;;;;;;;8.41;90.41;98913.88;5028932;28;20040;-79
2023/01/06 10:46:13;;;;;;;0.85;0.82;;;;;;;8.37;90.41;98902.88;5024696;28;20112;-79
2023/01/06 10:48:39;;;;;;;0.90;0.90;;;;;;;8.37;90.91;98897.56;5023258;28;20060;-80
2023/01/06 10:51:35;;;;;;;2.63;1.13;;;;;;;8.39;90.30;98898.13;5003881;28;20030;-80
2023/01/06 10:54:07;;;;;;;3.92;1.00;;;;;;;8.36;91.07;98911.09;5024824;28;20033;-79
2023/01/06 10:56:35;;;;;;;1.50;1.02;;;;;;;8.32;90.24;98894.00;5026737;28;20048;-79
2023/01/06 10:59:10;;;;;;;1.27;1.17;;;;;;;8.30;91.15;98891.53;5026875;28;20397;-79
2023/01/06 11:01:48;;;;;;;1.88;1.77;;;;;;;8.32;91.36;98905.44;5007918;28;20052;-80
2023/01/06 11:04:14;;;;;;;3.10;1.20;;;;;;;8.38;90.78;98909.81;5021884;28;20489;-79
2023/01/06 11:06:58;;;;;;;1.10;1.10;;;;;;;8.34;90.99;98899.88;5027645;28;20094;-80
2023/01/06 11:09:41;;;;;;;2.35;1.40;;;;;;;8.32;90.67;98897.47;5025239;28;20025;-78
2023/01/06 11:12:13;;;;;;;5.07;1.30;;;;;;;8.32;90.99;98900.13;5022545;28;20112;-79
2023/01/06 11:14:40;;;;;;;2.28;1.17;;;;;;;8.32;90.67;98895.59;5029184;28;20029;-79
2023/01/06 11:17:12;;;;;;;3.90;1.05;;;;;;;8.32;90.63;98898.25;5025956;28;20389;-79
2023/01/06 11:19:40;;;;;;;1.08;1.05;;;;;;;8.33;89.91;98896.41;5030450;28;20060;-79
2023/01/06 11:22:35;;;;;;;1.17;1.08;;;;;;;8.29;90.72;98893.41;5029752;28;20440;-79
2023/01/06 11:25:01;;;;;;;0.98;0.85;;;;;;;8.37;90.90;98897.56;5032932;28;20100;-79
2023/01/06 11:27:26;;;;;;;1.95;1.10;;;;;;;8.53;89.29;98891.53;5030245;28;20037;-79
2023/01/06 11:29:52;;;;;;;4.50;1.02;;;;;;;8.47;90.45;98891.66;5044147;28;20446;-80
2023/01/06 11:32:22;;;;;;;2.30;1.48;;;;;;;8.37;89.73;98900.22;5030416;28;20120;-79
2023/01/06 11:34:54;;;;;;;2.65;1.17;;;;;;;8.42;90.02;98910.16;5030456;28;20072;-80
2023/01/06 11:37:33;;;;;;;4.88;1.35;;;;;;;8.50;89.93;98915.13;5036131;28;21198;-80
2023/01/06 11:40:00;;;;;;;2.92;0.90;;;;;;;8.56;89.81;98907.00;5026275;28;20029;-80
2023/01/06 11:42:25;;;;;;;5.97;1.33;;;;;;;8.53;89.50;98923.47;5044175;28;20064;-80
2023/01/06 11:44:50;;;;;;;0.93;0.93;;;;;;;8.61;89.67;98914.28;5028427;28;20128;-80
2023/01/06 11:47:21;;;;;;;3.72;1.02;;;;;;;8.52;89.80;98894.44;5006588;28;20071;-79
2023/01/06 11:49:53;;;;;;;1.35;1.20;;;;;;;8.60;89.31;98904.72;5020715;28;20033;-79
2023/01/06 11:52:29;;;;;;;1.38;1.00;;;;;;;8.63;89.72;98904.22;5013805;28;20029;-79
2023/01/06 11:55:06;;;;;;;3.38;1.15;;;;;;;8.69;88.96;98908.63;5020177;28;20036;-79
2023/01/06 11:57:43;;;;;;;1.95;0.90;;;;;;;8.70;89.37;98903.06;5023398;28;20504;-78